sensor_id;sensor_type;location;lat;lon;timestamp;pressure;altitude;pressure_sealevel;temperature;humidity
54407;BME280;40313;50.308;30.374;2023-03-25T00:01:28;98752.56;;;13.21;100.00
54407;BME280;40313;50.308;30.374;2023-03-25T00:03:57;98742.78;;;13.23;100.00
54407;BME280;40313;50.308;30.374;2023-03-25T00:06:25;98747.63;;;13.27;100.00
54407;BME280;40313;50.308;30.374;2023-03-25T00:08:53;98738.00;;;13.28;100.00
54407;BME280;40313;50.308;30.374;2023-03-25T00:11:20;98737.88;;;13.29;100.00
54407;BME280;40313;50.308;30.374;2023-03-25T00:13:47;98740.63;;;13.28;100.00
54407;BME280;40313;50.308;30.374;2023-03-25T00:16:13;98744.19;;;13.27;100.00
54407;BME280;40313;50.308;30.374;2023-03-25T00:18:40;98743.50;;;13.25;100.00
54407;BME280;40313;50.308;30.374;2023-03-25T00:21:08;98744.81;;;13.19;100.00
54407;BME280;40313;50.308;30.374;2023-03-25T00:23:36;98746.72;;;13.17;100.00
54407;BME280;40313;50.308;30.374;2023-03-25T00:26:05;98755.66;;;13.14;100.00
54407;BME280;40313;50.308;30.374;2023-03-25T00:28:34;98759.50;;;13.10;100.00
54407;BME280;40313;50.308;30.374;2023-03-25T00:31:02;98759.28;;;13.02;100.00
54407;BME280;40313;50.308;30.374;2023-03-25T00:33:29;98757.59;;;13.01;100.00
54407;BME280;40313;50.308;30.374;2023-03-25T00:35:57;98758.13;;;12.95;100.00
54407;BME280;40313;50.308;30.374;2023-03-25T00:38:25;98749.53;;;12.93;100.00
54407;BME280;40313;50.308;30.374;2023-03-25T00:40:57;98747.28;;;12.88;100.00
54407;BME280;40313;50.308;30.374;2023-03-25T00:43:25;98748.50;;;12.84;100.00
54407;BME280;40313;50.308;30.374;2023-03-25T00:45:54;98748.03;;;12.79;100.00
54407;BME280;40313;50.308;30.374;2023-03-25T00:48:20;98743.63;;;12.79;100.00
54407;BME280;40313;50.308;30.374;2023-03-25T00:50:47;98744.44;;;12.80;100.00
54407;BME280;40313;50.308;30.374;2023-03-25T00:53:13;98744.69;;;12.77;100.00
54407;BME280;40313;50.308;30.374;2023-03-25T00:55:40;98745.66;;;12.76;100.00
54407;BME280;40313;50.308;30.374;2023-03-25T00:58:06;98743.03;;;12.76;100.00
54407;BME280;40313;50.308;30.374;2023-03-25T01:00:34;98738.03;;;12.73;100.00
54407;BME280;40313;50.308;30.374;2023-03-25T01:03:01;98736.41;;;12.72;100.00
54407;BME280;40313;50.308;30.374;2023-03-25T01:05:28;98738.16;;;12.71;100.00
54407;BME280;40313;50.308;30.374;2023-03-25T01:07:54;98743.53;;;12.70;100.00
54407;BME280;40313;50.308;30.374;2023-03-25T01:10:21;98742.72;;;12.69;100.00
54407;BME280;40313;50.308;30.374;2023-03-25T01:12:48;98745.56;;;12.66;100.00
54407;BME280;40313;50.308;30.374;2023-03-25T01:15:14;98744.03;;;12.64;100.00
54407;BME280;40313;50.308;30.374;2023-03-25T01:17:42;98733.81;;;12.60;100.00
54407;BME280;40313;50.308;30.374;2023-03-25T01:20:09;98739.88;;;12.61;100.00
54407;BME280;40313;50.308;30.374;2023-03-25T01:22:36;98729.66;;;12.58;100.00
54407;BME280;40313;50.308;30.374;2023-03-25T01:25:03;98729.66;;;12.58;100.00
54407;BME280;40313;50.308;30.374;2023-03-25T01:27:29;98737.63;;;12.56;100.00
54407;BME280;40313;50.308;30.374;2023-03-25T01:29:56;98741.19;;;12.55;100.00
54407;BME280;40313;50.308;30.374;2023-03-25T01:32:22;98734.28;;;12.54;100.00
54407;BME280;40313;50.308;30.374;2023-03-25T01:34:50;98738.81;;;12.52;100.00
54407;BME280;40313;50.308;30.374;2023-03-25T01:37:17;98740.69;;;12.50;100.00
54407;BME280;40313;50.308;30.374;2023-03-25T01:39:43;98738.31;;;12.47;100.00
54407;BME280;40313;50.308;30.374;2023-03-25T01:42:11;98744.53;;;12.46;100.00
54407;BME280;40313;50.308;30.374;2023-03-25T01:45:15;98732.66;;;12.42;100.00
54407;BME280;40313;50.308;30.374;2023-03-25T01:47:44;98734.41;;;12.41;100.00
54407;BME280;40313;50.308;30.374;2023-03-25T01:50:15;98734.53;;;12.40;100.00
54407;BME280;40313;50.308;30.374;2023-03-25T01:52:44;98728.59;;;12.38;100.00
54407;BME280;40313;50.308;30.374;2023-03-25T01:55:13;98730.50;;;12.36;100.00
54407;BME280;40313;50.308;30.374;2023-03-25T01:57:42;98736.91;;;12.32;100.00
54407;BME280;40313;50.308;30.374;2023-03-25T02:00:12;98735.25;;;12.31;100.00
54407;BME280;40313;50.308;30.374;2023-03-25T02:02:40;98724.06;;;12.28;100.00
54407;BME280;40313;50.308;30.374;2023-03-25T02:05:11;98729.56;;;12.25;100.00
54407;BME280;40313;50.308;30.374;2023-03-25T02:07:44;98719.22;;;12.24;100.00
54407;BME280;40313;50.308;30.374;2023-03-25T02:10:13;98722.66;;;12.24;100.00
54407;BME280;40313;50.308;30.374;2023-03-25T02:12:40;98721.81;;;12.24;100.00
54407;BME280;40313;50.308;30.374;2023-03-25T02:15:10;98706.38;;;12.21;100.00
54407;BME280;40313;50.308;30.374;2023-03-25T02:17:48;98716.03;;;12.20;100.00
54407;BME280;40313;50.308;30.374;2023-03-25T02:20:36;98714.34;;;12.19;100.00
54407;BME280;40313;50.308;30.374;2023-03-25T02:26:52;98715.78;;;12.12;100.00
54407;BME280;40313;50.308;30.374;2023-03-25T02:29:36;98709.38;;;12.05;100.00
54407;BME280;40313;50.308;30.374;2023-03-25T02:32:19;98708.28;;;11.96;100.00
54407;BME280;40313;50.308;30.374;2023-03-25T02:35:19;98700.28;;;11.86;100.00
54407;BME280;40313;50.308;30.374;2023-03-25T02:38:05;98692.56;;;11.73;100.00
54407;BME280;40313;50.308;30.374;2023-03-25T02:40:40;98700.16;;;11.65;100.00
54407;BME280;40313;50.308;30.374;2023-03-25T02:43:16;98696.22;;;11.59;100.00
54407;BME280;40313;50.308;30.374;2023-03-25T02:45:46;98693.84;;;11.56;100.00
54407;BME280;40313;50.308;30.374;2023-03-25T02:48:20;98689.78;;;11.52;100.00
54407;BME280;40313;50.308;30.374;2023-03-25T02:50:51;98703.09;;;11.49;100.00
54407;BME280;40313;50.308;30.374;2023-03-25T02:53:23;98699.63;;;11.49;100.00
54407;BME280;40313;50.308;30.374;2023-03-25T02:55:54;98707.56;;;11.47;100.00
54407;BME280;40313;50.308;30.374;2023-03-25T02:58:24;98705.19;;;11.44;100.00
54407;BME280;40313;50.308;30.374;2023-03-25T03:00:52;98724.34;;;11.45;100.00
54407;BME280;40313;50.308;30.374;2023-03-25T03:03:23;98723.47;;;11.44;100.00
54407;BME280;40313;50.308;30.374;2023-03-25T03:05:54;98728.69;;;11.44;100.00
54407;BME280;40313;50.308;30.374;2023-03-25T03:08:31;98734.97;;;11.41;100.00
54407;BME280;40313;50.308;30.374;2023-03-25T03:11:05;98732.50;;;11.40;100.00
54407;BME280;40313;50.308;30.374;2023-03-25T03:13:51;98736.06;;;11.39;100.00
54407;BME280;40313;50.308;30.374;2023-03-25T03:16:30;98722.16;;;11.38;100.00
54407;BME280;40313;50.308;30.374;2023-03-25T03:19:05;98724.88;;;11.37;100.00
54407;BME280;40313;50.308;30.374;2023-03-25T03:21:38;98719.78;;;11.35;100.00
54407;BME280;40313;50.308;30.374;2023-03-25T03:24:11;98725.13;;;11.34;100.00
54407;BME280;40313;50.308;30.374;2023-03-25T03:26:44;98723.56;;;11.31;100.00
54407;BME280;40313;50.308;30.374;2023-03-25T03:29:16;98720.25;;;11.29;100.00
54407;BME280;40313;50.308;30.374;2023-03-25T03:31:49;98704.69;;;11.28;100.00
54407;BME280;40313;50.308;30.374;2023-03-25T03:34:21;98698.84;;;11.24;100.00
54407;BME280;40313;50.308;30.374;2023-03-25T03:36:53;98700.66;;;11.23;100.00
54407;BME280;40313;50.308;30.374;2023-03-25T03:39:26;98707.63;;;11.23;100.00
54407;BME280;40313;50.308;30.374;2023-03-25T03:41:56;98699.19;;;11.19;100.00
54407;BME280;40313;50.308;30.374;2023-03-25T03:44:29;98702.75;;;11.18;100.00
54407;BME280;40313;50.308;30.374;2023-03-25T03:46:59;98705.59;;;11.15;100.00
54407;BME280;40313;50.308;30.374;2023-03-25T03:49:32;98706.66;;;11.13;100.00
54407;BME280;40313;50.308;30.374;2023-03-25T03:52:06;98711.97;;;11.11;100.00
54407;BME280;40313;50.308;30.374;2023-03-25T03:54:40;98706.88;;;11.10;100.00
54407;BME280;40313;50.308;30.374;2023-03-25T03:57:13;98708.91;;;11.06;100.00
54407;BME280;40313;50.308;30.374;2023-03-25T03:59:47;98702.94;;;11.04;100.00
54407;BME280;40313;50.308;30.374;2023-03-25T04:02:23;98712.44;;;11.05;100.00
54407;BME280;40313;50.308;30.374;2023-03-25T04:04:52;98706.38;;;11.04;100.00
54407;BME280;40313;50.308;30.374;2023-03-25T04:07:23;98703.88;;;11.03;100.00
54407;BME280;40313;50.308;30.374;2023-03-25T04:09:59;98701.38;;;11.01;100.00
54407;BME280;40313;50.308;30.374;2023-03-25T04:12:30;98698.78;;;11.01;100.00
54407;BME280;40313;50.308;30.374;2023-03-25T04:14:59;98698.78;;;11.01;100.00
54407;BME280;40313;50.308;30.374;2023-03-25T04:17:27;98700.66;;;10.99;100.00
54407;BME280;40313;50.308;30.374;2023-03-25T04:19:57;98687.63;;;10.99;100.00
54407;BME280;40313;50.308;30.374;2023-03-25T04:22:23;98695.56;;;10.98;100.00
54407;BME280;40313;50.308;30.374;2023-03-25T04:24:50;98700.78;;;10.98;100.00
54407;BME280;40313;50.308;30.374;2023-03-25T04:27:21;98693.91;;;10.97;100.00
54407;BME280;40313;50.308;30.374;2023-03-25T04:29:48;98692.00;;;10.99;100.00
54407;BME280;40313;50.308;30.374;2023-03-25T04:32:16;98686.78;;;10.99;100.00
54407;BME280;40313;50.308;30.374;2023-03-25T04:34:43;98692.63;;;11.02;100.00
54407;BME280;40313;50.308;30.374;2023-03-25T04:37:11;98683.84;;;11.03;100.00
54407;BME280;40313;50.308;30.374;2023-03-25T04:39:38;98681.13;;;11.05;100.00
54407;BME280;40313;50.308;30.374;2023-03-25T04:42:05;98683.50;;;11.08;100.00
54407;BME280;40313;50.308;30.374;2023-03-25T04:44:32;98679.84;;;11.11;100.00
54407;BME280;40313;50.308;30.374;2023-03-25T04:47:04;98668.34;;;11.13;100.00
54407;BME280;40313;50.308;30.374;2023-03-25T04:49:32;98663.59;;;11.18;100.00
54407;BME280;40313;50.308;30.374;2023-03-25T04:51:58;98659.94;;;11.21;100.00
54407;BME280;40313;50.308;30.374;2023-03-25T04:54:28;98669.31;;;11.23;100.00
54407;BME280;40313;50.308;30.374;2023-03-25T04:56:55;98661.13;;;11.28;100.00
54407;BME280;40313;50.308;30.374;2023-03-25T04:59:23;98662.69;;;11.31;100.00
54407;BME280;40313;50.308;30.374;2023-03-25T05:01:52;98659.59;;;11.37;100.00
54407;BME280;40313;50.308;30.374;2023-03-25T05:04:19;98658.44;;;11.41;100.00
54407;BME280;40313;50.308;30.374;2023-03-25T05:06:47;98662.47;;;11.45;100.00
54407;BME280;40313;50.308;30.374;2023-03-25T05:09:17;98655.22;;;11.49;100.00
54407;BME280;40313;50.308;30.374;2023-03-25T05:11:44;98661.06;;;11.52;100.00
54407;BME280;40313;50.308;30.374;2023-03-25T05:14:13;98654.66;;;11.56;100.00
54407;BME280;40313;50.308;30.374;2023-03-25T05:16:40;98650.88;;;11.61;100.00
54407;BME280;40313;50.308;30.374;2023-03-25T05:19:08;98648.97;;;11.63;100.00
54407;BME280;40313;50.308;30.374;2023-03-25T05:21:37;98654.69;;;11.68;100.00
54407;BME280;40313;50.308;30.374;2023-03-25T05:24:05;98651.00;;;11.70;100.00
54407;BME280;40313;50.308;30.374;2023-03-25T05:26:32;98658.34;;;11.76;100.00
54407;BME280;40313;50.308;30.374;2023-03-25T05:29:00;98662.41;;;11.81;100.00
54407;BME280;40313;50.308;30.374;2023-03-25T05:31:27;98652.06;;;11.90;100.00
54407;BME280;40313;50.308;30.374;2023-03-25T05:33:53;98645.06;;;12.02;100.00
54407;BME280;40313;50.308;30.374;2023-03-25T05:36:21;98645.06;;;12.14;100.00
54407;BME280;40313;50.308;30.374;2023-03-25T05:38:49;98640.63;;;12.25;100.00
54407;BME280;40313;50.308;30.374;2023-03-25T05:41:19;98645.38;;;12.32;100.00
54407;BME280;40313;50.308;30.374;2023-03-25T05:43:47;98635.25;;;12.38;100.00
54407;BME280;40313;50.308;30.374;2023-03-25T05:46:17;98640.25;;;12.41;100.00
54407;BME280;40313;50.308;30.374;2023-03-25T05:48:44;98631.31;;;12.44;100.00
54407;BME280;40313;50.308;30.374;2023-03-25T05:51:12;98628.34;;;12.49;100.00
54407;BME280;40313;50.308;30.374;2023-03-25T05:53:41;98621.78;;;12.54;100.00
54407;BME280;40313;50.308;30.374;2023-03-25T05:56:09;98619.50;;;12.61;100.00
54407;BME280;40313;50.308;30.374;2023-03-25T05:58:36;98614.88;;;12.65;100.00
54407;BME280;40313;50.308;30.374;2023-03-25T06:01:03;98626.97;;;12.66;100.00
54407;BME280;40313;50.308;30.374;2023-03-25T06:03:30;98632.22;;;12.66;100.00
54407;BME280;40313;50.308;30.374;2023-03-25T06:05:58;98629.84;;;12.62;100.00
54407;BME280;40313;50.308;30.374;2023-03-25T06:08:25;98622.25;;;12.59;100.00
54407;BME280;40313;50.308;30.374;2023-03-25T06:10:55;98623.31;;;12.57;100.00
54407;BME280;40313;50.308;30.374;2023-03-25T06:13:25;98621.09;;;12.52;100.00
54407;BME280;40313;50.308;30.374;2023-03-25T06:15:52;98621.34;;;12.49;100.00
54407;BME280;40313;50.308;30.374;2023-03-25T06:18:20;98621.81;;;12.43;100.00
54407;BME280;40313;50.308;30.374;2023-03-25T06:20:48;98616.97;;;12.38;100.00
54407;BME280;40313;50.308;30.374;2023-03-25T06:23:15;98624.25;;;12.35;100.00
54407;BME280;40313;50.308;30.374;2023-03-25T06:25:42;98604.63;;;12.29;100.00
54407;BME280;40313;50.308;30.374;2023-03-25T06:28:10;98618.53;;;12.30;100.00
54407;BME280;40313;50.308;30.374;2023-03-25T06:30:36;98605.31;;;12.31;100.00
54407;BME280;40313;50.308;30.374;2023-03-25T06:33:03;98603.06;;;12.38;100.00
54407;BME280;40313;50.308;30.374;2023-03-25T06:35:30;98605.91;;;12.46;100.00
54407;BME280;40313;50.308;30.374;2023-03-25T06:37:56;98600.97;;;12.53;100.00
54407;BME280;40313;50.308;30.374;2023-03-25T06:40:23;98601.56;;;12.56;100.00
54407;BME280;40313;50.308;30.374;2023-03-25T06:42:50;98603.13;;;12.59;100.00
54407;BME280;40313;50.308;30.374;2023-03-25T06:45:18;98597.50;;;12.64;100.00
54407;BME280;40313;50.308;30.374;2023-03-25T06:47:44;98601.84;;;12.74;100.00
54407;BME280;40313;50.308;30.374;2023-03-25T06:50:11;98597.28;;;12.88;100.00
54407;BME280;40313;50.308;30.374;2023-03-25T06:52:37;98603.16;;;13.01;100.00
54407;BME280;40313;50.308;30.374;2023-03-25T06:55:04;98604.16;;;13.10;100.00
54407;BME280;40313;50.308;30.374;2023-03-25T06:57:31;98594.56;;;13.20;100.00
54407;BME280;40313;50.308;30.374;2023-03-25T06:59:57;98595.81;;;13.37;100.00
54407;BME280;40313;50.308;30.374;2023-03-25T07:02:25;98586.50;;;13.54;100.00
54407;BME280;40313;50.308;30.374;2023-03-25T07:04:52;98588.25;;;13.75;100.00
54407;BME280;40313;50.308;30.374;2023-03-25T07:07:18;98589.41;;;14.02;100.00
54407;BME280;40313;50.308;30.374;2023-03-25T07:09:49;98588.53;;;14.32;100.00
54407;BME280;40313;50.308;30.374;2023-03-25T07:12:16;98587.34;;;14.65;100.00
54407;BME280;40313;50.308;30.374;2023-03-25T07:14:42;98581.66;;;14.99;100.00
54407;BME280;40313;50.308;30.374;2023-03-25T07:17:10;98590.53;;;15.36;100.00
54407;BME280;40313;50.308;30.374;2023-03-25T07:19:39;98583.75;;;15.81;100.00
54407;BME280;40313;50.308;30.374;2023-03-25T07:22:05;98577.91;;;16.15;100.00
54407;BME280;40313;50.308;30.374;2023-03-25T07:24:32;98576.19;;;16.41;100.00
54407;BME280;40313;50.308;30.374;2023-03-25T07:26:58;98583.41;;;16.57;100.00
54407;BME280;40313;50.308;30.374;2023-03-25T07:29:25;98587.22;;;16.63;100.00
54407;BME280;40313;50.308;30.374;2023-03-25T07:31:51;98565.94;;;16.74;100.00
54407;BME280;40313;50.308;30.374;2023-03-25T07:34:18;98586.25;;;16.82;100.00
54407;BME280;40313;50.308;30.374;2023-03-25T07:36:46;98572.72;;;16.77;100.00
54407;BME280;40313;50.308;30.374;2023-03-25T07:39:12;98566.97;;;16.82;100.00
54407;BME280;40313;50.308;30.374;2023-03-25T07:41:39;98570.00;;;16.87;100.00
54407;BME280;40313;50.308;30.374;2023-03-25T07:44:07;98564.81;;;16.95;100.00
54407;BME280;40313;50.308;30.374;2023-03-25T07:46:33;98559.75;;;17.02;100.00
54407;BME280;40313;50.308;30.374;2023-03-25T07:49:00;98559.56;;;16.95;100.00
54407;BME280;40313;50.308;30.374;2023-03-25T07:51:26;98555.88;;;16.88;100.00
54407;BME280;40313;50.308;30.374;2023-03-25T07:53:55;98555.88;;;16.88;100.00
54407;BME280;40313;50.308;30.374;2023-03-25T07:56:22;98546.97;;;16.89;100.00
54407;BME280;40313;50.308;30.374;2023-03-25T07:58:48;98546.84;;;16.90;100.00
54407;BME280;40313;50.308;30.374;2023-03-25T08:01:15;98539.97;;;16.98;100.00
54407;BME280;40313;50.308;30.374;2023-03-25T08:03:41;98528.13;;;17.02;100.00
54407;BME280;40313;50.308;30.374;2023-03-25T08:06:08;98534.59;;;17.07;100.00
54407;BME280;40313;50.308;30.374;2023-03-25T08:08:35;98530.34;;;17.15;100.00
54407;BME280;40313;50.308;30.374;2023-03-25T08:11:03;98526.78;;;17.24;100.00
54407;BME280;40313;50.308;30.374;2023-03-25T08:13:29;98535.09;;;17.37;100.00
54407;BME280;40313;50.308;30.374;2023-03-25T08:15:56;98531.69;;;17.53;100.00
54407;BME280;40313;50.308;30.374;2023-03-25T08:18:23;98521.88;;;17.64;100.00
54407;BME280;40313;50.308;30.374;2023-03-25T08:20:49;98507.34;;;17.59;100.00
54407;BME280;40313;50.308;30.374;2023-03-25T08:23:16;98511.75;;;17.51;100.00
54407;BME280;40313;50.308;30.374;2023-03-25T08:25:45;98518.28;;;17.38;100.00
54407;BME280;40313;50.308;30.374;2023-03-25T08:28:14;98501.81;;;17.36;100.00
54407;BME280;40313;50.308;30.374;2023-03-25T08:30:42;98510.47;;;17.55;100.00
54407;BME280;40313;50.308;30.374;2023-03-25T08:33:09;98517.25;;;17.66;100.00
54407;BME280;40313;50.308;30.374;2023-03-25T08:35:37;98509.66;;;17.62;100.00
54407;BME280;40313;50.308;30.374;2023-03-25T08:38:04;98516.88;;;17.52;100.00
54407;BME280;40313;50.308;30.374;2023-03-25T08:40:31;98508.41;;;17.40;100.00
54407;BME280;40313;50.308;30.374;2023-03-25T08:42:57;98502.78;;;17.35;100.00
54407;BME280;40313;50.308;30.374;2023-03-25T08:45:25;98507.34;;;17.25;100.00
54407;BME280;40313;50.308;30.374;2023-03-25T08:47:51;98504.28;;;17.03;100.00
54407;BME280;40313;50.308;30.374;2023-03-25T08:50:18;98507.84;;;16.94;100.00
54407;BME280;40313;50.308;30.374;2023-03-25T08:52:45;98508.47;;;16.88;100.00
54407;BME280;40313;50.308;30.374;2023-03-25T08:55:11;98505.84;;;16.88;100.00
54407;BME280;40313;50.308;30.374;2023-03-25T08:57:40;98510.09;;;16.89;100.00
54407;BME280;40313;50.308;30.374;2023-03-25T09:00:07;98506.19;;;16.93;100.00
54407;BME280;40313;50.308;30.374;2023-03-25T09:02:37;98503.59;;;17.01;100.00
54407;BME280;40313;50.308;30.374;2023-03-25T09:05:05;98514.34;;;17.08;100.00
54407;BME280;40313;50.308;30.374;2023-03-25T09:07:31;98517.16;;;17.15;100.00
54407;BME280;40313;50.308;30.374;2023-03-25T09:09:57;98511.13;;;17.22;100.00
54407;BME280;40313;50.308;30.374;2023-03-25T09:12:24;98505.75;;;17.32;100.00
54407;BME280;40313;50.308;30.374;2023-03-25T09:14:50;98514.41;;;17.51;100.00
54407;BME280;40313;50.308;30.374;2023-03-25T09:17:17;98508.84;;;17.70;100.00
54407;BME280;40313;50.308;30.374;2023-03-25T09:19:45;98501.16;;;17.85;100.00
54407;BME280;40313;50.308;30.374;2023-03-25T09:22:12;98487.53;;;17.98;100.00
54407;BME280;40313;50.308;30.374;2023-03-25T09:24:39;98474.19;;;18.08;100.00
54407;BME280;40313;50.308;30.374;2023-03-25T09:27:06;98473.84;;;18.11;100.00
54407;BME280;40313;50.308;30.374;2023-03-25T09:29:33;98468.38;;;18.04;100.00
54407;BME280;40313;50.308;30.374;2023-03-25T09:32:00;98482.56;;;17.95;100.00
54407;BME280;40313;50.308;30.374;2023-03-25T09:34:27;98491.41;;;17.86;100.00
54407;BME280;40313;50.308;30.374;2023-03-25T09:36:55;98493.03;;;17.78;100.00
54407;BME280;40313;50.308;30.374;2023-03-25T09:39:22;98494.34;;;17.74;100.00
54407;BME280;40313;50.308;30.374;2023-03-25T09:42:09;98492.00;;;17.55;100.00
54407;BME280;40313;50.308;30.374;2023-03-25T09:44:50;98488.66;;;17.44;100.00
54407;BME280;40313;50.308;30.374;2023-03-25T09:47:18;98477.72;;;17.31;100.00
54407;BME280;40313;50.308;30.374;2023-03-25T09:49:47;98480.31;;;17.23;100.00
54407;BME280;40313;50.308;30.374;2023-03-25T09:52:22;98464.34;;;17.16;100.00
54407;BME280;40313;50.308;30.374;2023-03-25T09:54:52;98457.34;;;17.07;100.00
54407;BME280;40313;50.308;30.374;2023-03-25T09:57:23;98458.44;;;16.96;100.00
54407;BME280;40313;50.308;30.374;2023-03-25T09:59:55;98461.88;;;16.88;100.00
54407;BME280;40313;50.308;30.374;2023-03-25T10:02:31;98463.59;;;16.80;100.00
54407;BME280;40313;50.308;30.374;2023-03-25T10:05:03;98470.47;;;16.72;100.00
54407;BME280;40313;50.308;30.374;2023-03-25T10:07:46;98460.72;;;16.65;100.00
54407;BME280;40313;50.308;30.374;2023-03-25T10:10:22;98455.56;;;16.63;100.00
54407;BME280;40313;50.308;30.374;2023-03-25T10:12:56;98456.28;;;16.65;100.00
54407;BME280;40313;50.308;30.374;2023-03-25T10:15:31;98454.59;;;16.64;100.00
54407;BME280;40313;50.308;30.374;2023-03-25T10:18:04;98455.56;;;16.63;100.00
54407;BME280;40313;50.308;30.374;2023-03-25T10:20:43;98454.59;;;16.64;100.00
54407;BME280;40313;50.308;30.374;2023-03-25T10:23:20;98449.66;;;16.61;100.00
54407;BME280;40313;50.308;30.374;2023-03-25T10:25:52;98450.31;;;16.63;100.00
54407;BME280;40313;50.308;30.374;2023-03-25T10:28:25;98446.53;;;16.66;100.00
54407;BME280;40313;50.308;30.374;2023-03-25T10:30:53;98445.72;;;16.65;100.00
54407;BME280;40313;50.308;30.374;2023-03-25T10:33:26;98449.50;;;16.63;100.00
54407;BME280;40313;50.308;30.374;2023-03-25T10:35:55;98454.28;;;16.67;100.00
54407;BME280;40313;50.308;30.374;2023-03-25T10:38:25;98447.91;;;16.70;100.00
54407;BME280;40313;50.308;30.374;2023-03-25T10:41:02;98442.16;;;16.74;100.00
54407;BME280;40313;50.308;30.374;2023-03-25T10:43:31;98438.06;;;16.80;100.00
54407;BME280;40313;50.308;30.374;2023-03-25T10:46:04;98438.59;;;16.84;100.00
54407;BME280;40313;50.308;30.374;2023-03-25T10:48:33;98431.06;;;16.89;100.00
54407;BME280;40313;50.308;30.374;2023-03-25T10:51:02;98423.16;;;16.89;100.00
54407;BME280;40313;50.308;30.374;2023-03-25T10:53:31;98418.03;;;16.87;100.00
54407;BME280;40313;50.308;30.374;2023-03-25T10:56:02;98419.59;;;16.98;100.00
54407;BME280;40313;50.308;30.374;2023-03-25T10:58:30;98414.72;;;17.12;100.00
54407;BME280;40313;50.308;30.374;2023-03-25T11:00:58;98413.81;;;17.37;100.00
54407;BME280;40313;50.308;30.374;2023-03-25T11:03:28;98412.25;;;17.77;100.00
54407;BME280;40313;50.308;30.374;2023-03-25T11:05:56;98407.03;;;18.10;100.00
54407;BME280;40313;50.308;30.374;2023-03-25T11:08:23;98399.75;;;18.37;100.00
54407;BME280;40313;50.308;30.374;2023-03-25T11:10:51;98399.06;;;18.60;100.00
54407;BME280;40313;50.308;30.374;2023-03-25T11:13:23;98389.47;;;18.75;100.00
54407;BME280;40313;50.308;30.374;2023-03-25T11:15:52;98389.94;;;18.87;100.00
54407;BME280;40313;50.308;30.374;2023-03-25T11:18:23;98383.13;;;19.01;100.00
54407;BME280;40313;50.308;30.374;2023-03-25T11:20:50;98386.91;;;19.07;99.69
54407;BME280;40313;50.308;30.374;2023-03-25T11:23:23;98385.06;;;19.07;97.81
54407;BME280;40313;50.308;30.374;2023-03-25T11:25:53;98379.44;;;19.10;97.23
54407;BME280;40313;50.308;30.374;2023-03-25T11:28:25;98388.19;;;19.19;96.95
54407;BME280;40313;50.308;30.374;2023-03-25T11:31:22;98385.06;;;19.07;93.69
54407;BME280;40313;50.308;30.374;2023-03-25T11:34:03;98395.66;;;18.99;95.85
54407;BME280;40313;50.308;30.374;2023-03-25T11:36:31;98397.69;;;18.89;97.14
54407;BME280;40313;50.308;30.374;2023-03-25T11:38:59;98395.72;;;18.74;97.30
54407;BME280;40313;50.308;30.374;2023-03-25T11:41:31;98389.53;;;18.51;98.19
54407;BME280;40313;50.308;30.374;2023-03-25T11:43:59;98388.56;;;18.35;100.00
54407;BME280;40313;50.308;30.374;2023-03-25T11:46:26;98395.84;;;18.25;100.00
54407;BME280;40313;50.308;30.374;2023-03-25T11:48:53;98401.28;;;18.15;100.00
54407;BME280;40313;50.308;30.374;2023-03-25T11:51:21;98391.88;;;18.12;100.00
54407;BME280;40313;50.308;30.374;2023-03-25T11:53:55;98398.81;;;18.13;100.00
54407;BME280;40313;50.308;30.374;2023-03-25T11:56:28;98394.69;;;18.11;100.00
54407;BME280;40313;50.308;30.374;2023-03-25T11:58:58;98396.63;;;18.09;100.00
54407;BME280;40313;50.308;30.374;2023-03-25T12:01:28;98391.84;;;17.96;100.00
54407;BME280;40313;50.308;30.374;2023-03-25T12:04:11;98389.03;;;17.81;100.00
54407;BME280;40313;50.308;30.374;2023-03-25T12:06:51;98383.56;;;17.74;100.00
54407;BME280;40313;50.308;30.374;2023-03-25T12:09:18;98397.78;;;17.73;100.00
54407;BME280;40313;50.308;30.374;2023-03-25T12:11:54;98393.63;;;17.71;100.00
54407;BME280;40313;50.308;30.374;2023-03-25T12:14:33;98392.16;;;17.68;100.00
54407;BME280;40313;50.308;30.374;2023-03-25T12:17:07;98378.59;;;17.63;100.00
54407;BME280;40313;50.308;30.374;2023-03-25T12:19:46;98387.50;;;17.54;100.00
54407;BME280;40313;50.308;30.374;2023-03-25T12:22:28;98379.56;;;17.45;100.00
54407;BME280;40313;50.308;30.374;2023-03-25T12:25:06;98382.19;;;17.37;100.00
54407;BME280;40313;50.308;30.374;2023-03-25T12:27:50;98380.38;;;17.30;100.00
54407;BME280;40313;50.308;30.374;2023-03-25T12:30:31;98380.16;;;17.23;100.00
54407;BME280;40313;50.308;30.374;2023-03-25T12:33:07;98372.09;;;17.16;100.00
54407;BME280;40313;50.308;30.374;2023-03-25T12:35:42;98372.91;;;17.17;100.00
54407;BME280;40313;50.308;30.374;2023-03-25T12:38:24;98361.88;;;17.21;100.00
54407;BME280;40313;50.308;30.374;2023-03-25T12:41:20;98369.81;;;17.30;100.00
54407;BME280;40313;50.308;30.374;2023-03-25T12:43:57;98363.09;;;17.35;100.00
54407;BME280;40313;50.308;30.374;2023-03-25T12:46:40;98372.34;;;17.48;100.00
54407;BME280;40313;50.308;30.374;2023-03-25T12:49:22;98372.69;;;17.61;100.00
54407;BME280;40313;50.308;30.374;2023-03-25T12:51:55;98374.69;;;17.75;100.00
54407;BME280;40313;50.308;30.374;2023-03-25T12:54:39;98365.28;;;17.81;100.00
54407;BME280;40313;50.308;30.374;2023-03-25T12:57:23;98365.09;;;17.74;100.00
54407;BME280;40313;50.308;30.374;2023-03-25T13:00:12;98356.88;;;17.61;100.00